sensor_id;sensor_type;location;lat;lon;timestamp;pressure;altitude;pressure_sealevel;temperature;humidity
48041;BME280;33815;48.386;11.738;2022-08-14T00:01:29;96314.06;;;12.09;100.00
48041;BME280;33815;48.386;11.738;2022-08-14T00:03:54;96313.06;;;12.10;100.00
48041;BME280;33815;48.386;11.738;2022-08-14T00:06:20;96306.53;;;12.14;100.00
48041;BME280;33815;48.386;11.738;2022-08-14T00:08:45;96281.59;;;12.04;100.00
48041;BME280;33815;48.386;11.738;2022-08-14T00:11:10;96280.59;;;12.05;100.00
48041;BME280;33815;48.386;11.738;2022-08-14T00:13:35;96295.78;;;12.09;100.00
48041;BME280;33815;48.386;11.738;2022-08-14T00:16:01;96286.66;;;11.97;100.00
48041;BME280;33815;48.386;11.738;2022-08-14T00:18:27;96290.72;;;11.91;100.00
48041;BME280;33815;48.386;11.738;2022-08-14T00:20:53;96287.94;;;11.85;100.00
48041;BME280;33815;48.386;11.738;2022-08-14T00:23:19;96274.56;;;11.79;100.00
48041;BME280;33815;48.386;11.738;2022-08-14T00:25:50;96273.25;;;11.75;100.00
48041;BME280;33815;48.386;11.738;2022-08-14T00:28:16;96275.22;;;11.73;100.00
48041;BME280;33815;48.386;11.738;2022-08-14T00:30:43;96269.03;;;11.66;100.00
48041;BME280;33815;48.386;11.738;2022-08-14T00:33:09;96260.88;;;11.61;100.00
48041;BME280;33815;48.386;11.738;2022-08-14T00:35:34;96273.94;;;11.61;100.00
48041;BME280;33815;48.386;11.738;2022-08-14T00:38:00;96261.72;;;11.53;100.00
48041;BME280;33815;48.386;11.738;2022-08-14T00:40:26;96272.97;;;11.62;100.00
48041;BME280;33815;48.386;11.738;2022-08-14T00:42:51;96277.38;;;11.53;100.00
48041;BME280;33815;48.386;11.738;2022-08-14T00:45:16;96267.09;;;11.43;100.00
48041;BME280;33815;48.386;11.738;2022-08-14T00:47:44;96270.69;;;11.42;100.00
48041;BME280;33815;48.386;11.738;2022-08-14T00:50:11;96269.22;;;11.48;100.00
48041;BME280;33815;48.386;11.738;2022-08-14T00:52:37;96265.31;;;11.52;100.00
48041;BME280;33815;48.386;11.738;2022-08-14T00:55:05;96273.13;;;11.44;100.00
48041;BME280;33815;48.386;11.738;2022-08-14T00:57:33;96259.09;;;11.37;100.00
48041;BME280;33815;48.386;11.738;2022-08-14T01:00:00;96258.13;;;11.38;100.00
48041;BME280;33815;48.386;11.738;2022-08-14T01:02:27;96241.81;;;11.27;100.00
48041;BME280;33815;48.386;11.738;2022-08-14T01:04:55;96253.72;;;11.30;100.00
48041;BME280;33815;48.386;11.738;2022-08-14T01:07:23;96236.44;;;11.12;100.00
48041;BME280;33815;48.386;11.738;2022-08-14T01:09:52;96251.75;;;11.16;100.00
48041;BME280;33815;48.386;11.738;2022-08-14T01:12:18;96250.78;;;11.08;100.00
48041;BME280;33815;48.386;11.738;2022-08-14T01:14:44;96254.03;;;11.10;100.00
48041;BME280;33815;48.386;11.738;2022-08-14T01:17:10;96251.56;;;11.09;100.00
48041;BME280;33815;48.386;11.738;2022-08-14T01:19:35;96257.94;;;11.06;100.00
48041;BME280;33815;48.386;11.738;2022-08-14T01:22:19;96249.13;;;11.07;100.00
48041;BME280;33815;48.386;11.738;2022-08-14T01:24:46;96253.22;;;11.10;100.00
48041;BME280;33815;48.386;11.738;2022-08-14T01:27:19;96243.59;;;11.10;100.00
48041;BME280;33815;48.386;11.738;2022-08-14T01:29:48;96252.38;;;11.09;100.00
48041;BME280;33815;48.386;11.738;2022-08-14T01:32:15;96235.75;;;11.02;100.00
48041;BME280;33815;48.386;11.738;2022-08-14T01:34:42;96243.91;;;11.07;100.00
48041;BME280;33815;48.386;11.738;2022-08-14T01:37:08;96253.53;;;11.07;100.00
48041;BME280;33815;48.386;11.738;2022-08-14T01:39:34;96251.06;;;11.05;100.00
48041;BME280;33815;48.386;11.738;2022-08-14T01:42:00;96229.22;;;10.90;100.00
48041;BME280;33815;48.386;11.738;2022-08-14T01:44:27;96239.63;;;10.90;100.00
48041;BME280;33815;48.386;11.738;2022-08-14T01:46:56;96218.94;;;10.72;100.00
48041;BME280;33815;48.386;11.738;2022-08-14T01:49:23;96241.91;;;10.76;100.00
48041;BME280;33815;48.386;11.738;2022-08-14T01:51:48;96239.94;;;10.78;100.00
48041;BME280;33815;48.386;11.738;2022-08-14T01:54:18;96223.84;;;10.75;100.00
48041;BME280;33815;48.386;11.738;2022-08-14T01:56:50;96225.16;;;10.79;100.00
48041;BME280;33815;48.386;11.738;2022-08-14T02:01:44;96223.97;;;10.65;100.00
48041;BME280;33815;48.386;11.738;2022-08-14T02:04:10;96214.50;;;10.56;100.00
48041;BME280;33815;48.386;11.738;2022-08-14T02:06:37;96210.75;;;10.58;100.00
48041;BME280;33815;48.386;11.738;2022-08-14T02:09:06;96201.94;;;10.51;100.00
48041;BME280;33815;48.386;11.738;2022-08-14T02:11:32;96205.38;;;10.60;100.00
48041;BME280;33815;48.386;11.738;2022-08-14T02:16:27;96206.34;;;10.59;100.00
48041;BME280;33815;48.386;11.738;2022-08-14T02:18:56;96193.31;;;10.59;100.00
48041;BME280;33815;48.386;11.738;2022-08-14T02:21:22;96188.13;;;10.51;100.00
48041;BME280;33815;48.386;11.738;2022-08-14T02:23:49;96189.09;;;10.50;100.00
48041;BME280;33815;48.386;11.738;2022-08-14T02:26:18;96181.88;;;10.43;100.00
48041;BME280;33815;48.386;11.738;2022-08-14T02:28:43;96186.13;;;10.44;100.00
48041;BME280;33815;48.386;11.738;2022-08-14T02:31:11;96176.03;;;10.41;100.00
48041;BME280;33815;48.386;11.738;2022-08-14T02:33:37;96171.25;;;10.28;100.00
48041;BME280;33815;48.386;11.738;2022-08-14T02:36:03;96170.28;;;10.29;100.00
48041;BME280;33815;48.386;11.738;2022-08-14T02:38:29;96178.28;;;10.36;100.00
48041;BME280;33815;48.386;11.738;2022-08-14T02:40:57;96178.13;;;10.38;100.00
48041;BME280;33815;48.386;11.738;2022-08-14T02:43:23;96177.31;;;10.37;100.00
48041;BME280;33815;48.386;11.738;2022-08-14T02:45:48;96167.88;;;10.36;100.00
48041;BME280;33815;48.386;11.738;2022-08-14T02:48:14;96170.75;;;10.33;100.00
48041;BME280;33815;48.386;11.738;2022-08-14T02:50:40;96149.56;;;10.28;100.00
48041;BME280;33815;48.386;11.738;2022-08-14T02:53:07;96150.72;;;10.34;100.00
48041;BME280;33815;48.386;11.738;2022-08-14T02:55:33;96147.03;;;10.36;100.00
48041;BME280;33815;48.386;11.738;2022-08-14T02:57:58;96154.38;;;10.41;100.00
48041;BME280;33815;48.386;11.738;2022-08-14T03:00:24;96133.19;;;10.36;100.00
48041;BME280;33815;48.386;11.738;2022-08-14T03:02:49;96135.97;;;10.42;100.00
48041;BME280;33815;48.386;11.738;2022-08-14T03:05:16;96149.66;;;10.53;100.00
48041;BME280;33815;48.386;11.738;2022-08-14T03:07:42;96148.03;;;10.52;100.00
48041;BME280;33815;48.386;11.738;2022-08-14T03:10:08;96149.16;;;10.49;100.00
48041;BME280;33815;48.386;11.738;2022-08-14T03:12:34;96156.66;;;10.44;100.00
48041;BME280;33815;48.386;11.738;2022-08-14T03:15:01;96157.75;;;10.33;100.00
48041;BME280;33815;48.386;11.738;2022-08-14T03:17:37;96160.56;;;10.40;100.00
48041;BME280;33815;48.386;11.738;2022-08-14T03:20:03;96149.00;;;10.34;100.00
48041;BME280;33815;48.386;11.738;2022-08-14T03:22:30;96139.50;;;10.33;100.00
48041;BME280;33815;48.386;11.738;2022-08-14T03:24:57;96137.06;;;10.32;100.00
48041;BME280;33815;48.386;11.738;2022-08-14T03:27:24;96136.91;;;10.33;100.00
48041;BME280;33815;48.386;11.738;2022-08-14T03:29:54;96140.16;;;10.27;100.00
48041;BME280;33815;48.386;11.738;2022-08-14T03:32:19;96131.81;;;10.15;100.00
48041;BME280;33815;48.386;11.738;2022-08-14T03:34:44;96125.44;;;10.09;100.00
48041;BME280;33815;48.386;11.738;2022-08-14T03:37:10;96129.53;;;10.12;100.00
48041;BME280;33815;48.386;11.738;2022-08-14T03:39:36;96127.56;;;10.14;100.00
48041;BME280;33815;48.386;11.738;2022-08-14T03:42:02;96123.81;;;10.08;100.00
48041;BME280;33815;48.386;11.738;2022-08-14T03:44:27;96122.34;;;10.06;100.00
48041;BME280;33815;48.386;11.738;2022-08-14T03:46:52;96130.00;;;10.07;100.00
48041;BME280;33815;48.386;11.738;2022-08-14T03:49:23;96135.25;;;10.16;100.00
48041;BME280;33815;48.386;11.738;2022-08-14T03:51:48;96118.59;;;10.08;100.00
48041;BME280;33815;48.386;11.738;2022-08-14T03:54:14;96126.44;;;10.17;100.00
48041;BME280;33815;48.386;11.738;2022-08-14T03:56:39;96115.53;;;10.13;100.00
48041;BME280;33815;48.386;11.738;2022-08-14T03:59:09;96118.31;;;10.28;100.00
48041;BME280;33815;48.386;11.738;2022-08-14T04:01:38;96132.22;;;10.37;100.00
48041;BME280;33815;48.386;11.738;2022-08-14T04:04:05;96112.31;;;10.27;100.00
48041;BME280;33815;48.386;11.738;2022-08-14T04:06:35;96128.78;;;10.36;100.00
48041;BME280;33815;48.386;11.738;2022-08-14T04:09:02;96121.75;;;10.28;100.00
48041;BME280;33815;48.386;11.738;2022-08-14T04:11:27;96109.50;;;10.12;100.00
48041;BME280;33815;48.386;11.738;2022-08-14T04:13:53;96103.81;;;10.09;100.00
48041;BME280;33815;48.386;11.738;2022-08-14T04:16:20;96113.72;;;10.14;100.00
48041;BME280;33815;48.386;11.738;2022-08-14T04:18:49;96109.00;;;10.09;100.00
48041;BME280;33815;48.386;11.738;2022-08-14T04:21:16;96095.84;;;10.10;100.00
48041;BME280;33815;48.386;11.738;2022-08-14T04:23:42;96090.63;;;10.10;100.00
48041;BME280;33815;48.386;11.738;2022-08-14T04:26:11;96100.09;;;10.20;100.00
48041;BME280;33815;48.386;11.738;2022-08-14T04:28:38;96102.56;;;10.29;100.00
48041;BME280;33815;48.386;11.738;2022-08-14T04:31:04;96109.91;;;10.34;100.00
48041;BME280;33815;48.386;11.738;2022-08-14T04:33:30;96100.44;;;10.33;100.00
48041;BME280;33815;48.386;11.738;2022-08-14T04:35:56;96084.78;;;10.25;100.00
48041;BME280;33815;48.386;11.738;2022-08-14T04:38:21;96089.19;;;10.24;100.00
48041;BME280;33815;48.386;11.738;2022-08-14T04:41:06;96081.25;;;10.34;100.00
48041;BME280;33815;48.386;11.738;2022-08-14T04:43:50;96091.53;;;10.44;100.00
48041;BME280;33815;48.386;11.738;2022-08-14T04:46:18;96095.44;;;10.48;100.00
48041;BME280;33815;48.386;11.738;2022-08-14T04:48:44;96088.09;;;10.52;100.00
48041;BME280;33815;48.386;11.738;2022-08-14T04:51:11;96089.25;;;10.57;100.00
48041;BME280;33815;48.386;11.738;2022-08-14T04:53:39;96086.50;;;10.51;100.00
48041;BME280;33815;48.386;11.738;2022-08-14T04:56:10;96080.28;;;10.43;100.00
48041;BME280;33815;48.386;11.738;2022-08-14T04:58:37;96081.28;;;10.51;100.00
48041;BME280;33815;48.386;11.738;2022-08-14T05:01:04;96084.38;;;10.62;100.00
48041;BME280;33815;48.386;11.738;2022-08-14T05:03:33;96076.88;;;10.68;100.00
48041;BME280;33815;48.386;11.738;2022-08-14T05:06:02;96063.19;;;10.66;100.00
48041;BME280;33815;48.386;11.738;2022-08-14T05:08:28;96084.84;;;10.74;100.00
48041;BME280;33815;48.386;11.738;2022-08-14T05:10:56;96088.94;;;10.85;100.00
48041;BME280;33815;48.386;11.738;2022-08-14T05:13:23;96092.66;;;10.91;100.00
48041;BME280;33815;48.386;11.738;2022-08-14T05:15:50;96089.72;;;11.02;100.00
48041;BME280;33815;48.386;11.738;2022-08-14T05:18:18;96067.25;;;10.93;100.00
48041;BME280;33815;48.386;11.738;2022-08-14T05:20:47;96081.88;;;11.10;100.00
48041;BME280;33815;48.386;11.738;2022-08-14T05:23:17;96084.00;;;11.15;100.00
48041;BME280;33815;48.386;11.738;2022-08-14T05:25:44;96070.66;;;11.10;100.00
48041;BME280;33815;48.386;11.738;2022-08-14T05:28:19;96069.16;;;11.24;100.00
48041;BME280;33815;48.386;11.738;2022-08-14T05:30:47;96072.38;;;11.34;100.00
48041;BME280;33815;48.386;11.738;2022-08-14T05:33:13;96082.94;;;11.49;100.00
48041;BME280;33815;48.386;11.738;2022-08-14T05:35:40;96080.78;;;11.61;100.00
48041;BME280;33815;48.386;11.738;2022-08-14T05:38:10;96076.03;;;11.73;100.00
48041;BME280;33815;48.386;11.738;2022-08-14T05:40:37;96075.81;;;11.82;100.00
48041;BME280;33815;48.386;11.738;2022-08-14T05:43:04;96075.13;;;11.89;100.00
48041;BME280;33815;48.386;11.738;2022-08-14T05:45:29;96084.91;;;11.95;100.00
48041;BME280;33815;48.386;11.738;2022-08-14T05:47:54;96072.69;;;11.95;100.00
48041;BME280;33815;48.386;11.738;2022-08-14T05:50:20;96069.94;;;12.12;100.00
48041;BME280;33815;48.386;11.738;2022-08-14T05:52:46;96071.00;;;12.26;100.00
48041;BME280;33815;48.386;11.738;2022-08-14T05:55:12;96086.28;;;12.37;100.00
48041;BME280;33815;48.386;11.738;2022-08-14T05:58:02;96073.69;;;12.41;100.00
48041;BME280;33815;48.386;11.738;2022-08-14T06:00:38;96083.50;;;12.62;100.00
48041;BME280;33815;48.386;11.738;2022-08-14T06:03:07;96081.13;;;12.75;100.00
48041;BME280;33815;48.386;11.738;2022-08-14T06:05:33;96085.50;;;12.98;100.00
48041;BME280;33815;48.386;11.738;2022-08-14T06:07:59;96096.34;;;13.10;100.00
48041;BME280;33815;48.386;11.738;2022-08-14T06:10:26;96099.97;;;13.24;100.00
48041;BME280;33815;48.386;11.738;2022-08-14T06:12:52;96100.84;;;13.54;100.00
48041;BME280;33815;48.386;11.738;2022-08-14T06:15:17;96083.88;;;13.65;100.00
48041;BME280;33815;48.386;11.738;2022-08-14T06:17:47;96101.72;;;13.91;100.00
48041;BME280;33815;48.386;11.738;2022-08-14T06:20:13;96096.38;;;14.14;100.00
48041;BME280;33815;48.386;11.738;2022-08-14T06:22:40;96093.75;;;14.14;100.00
48041;BME280;33815;48.386;11.738;2022-08-14T06:25:06;96090.00;;;14.23;100.00
48041;BME280;33815;48.386;11.738;2022-08-14T06:27:45;96083.03;;;14.31;100.00
48041;BME280;33815;48.386;11.738;2022-08-14T06:30:13;96075.47;;;14.43;100.00
48041;BME280;33815;48.386;11.738;2022-08-14T06:32:39;96089.88;;;14.68;100.00
48041;BME280;33815;48.386;11.738;2022-08-14T06:35:06;96083.19;;;14.87;99.97
48041;BME280;33815;48.386;11.738;2022-08-14T06:37:48;96098.34;;;15.20;95.52
48041;BME280;33815;48.386;11.738;2022-08-14T06:40:19;96092.75;;;15.23;96.36
48041;BME280;33815;48.386;11.738;2022-08-14T06:42:45;96088.19;;;15.39;97.99
48041;BME280;33815;48.386;11.738;2022-08-14T06:45:11;96071.81;;;15.37;96.44
48041;BME280;33815;48.386;11.738;2022-08-14T06:47:38;96092.97;;;15.57;96.08
48041;BME280;33815;48.386;11.738;2022-08-14T06:50:07;96091.97;;;15.65;94.77
48041;BME280;33815;48.386;11.738;2022-08-14T06:52:32;96085.59;;;15.81;94.53
48041;BME280;33815;48.386;11.738;2022-08-14T06:54:58;96101.28;;;16.02;91.83
48041;BME280;33815;48.386;11.738;2022-08-14T06:57:24;96111.22;;;16.14;89.82
48041;BME280;33815;48.386;11.738;2022-08-14T06:59:50;96102.16;;;16.16;91.33
48041;BME280;33815;48.386;11.738;2022-08-14T07:02:15;96099.94;;;16.26;92.08
48041;BME280;33815;48.386;11.738;2022-08-14T07:04:59;96078.53;;;16.36;91.47
48041;BME280;33815;48.386;11.738;2022-08-14T07:07:43;96098.84;;;16.83;89.15
48041;BME280;33815;48.386;11.738;2022-08-14T07:10:09;96098.44;;;16.79;86.87
48041;BME280;33815;48.386;11.738;2022-08-14T07:12:35;96092.59;;;16.90;85.73
48041;BME280;33815;48.386;11.738;2022-08-14T07:15:01;96097.06;;;17.03;85.29
48041;BME280;33815;48.386;11.738;2022-08-14T07:17:27;96101.88;;;17.26;85.49
48041;BME280;33815;48.386;11.738;2022-08-14T07:19:52;96084.25;;;17.47;83.17
48041;BME280;33815;48.386;11.738;2022-08-14T07:22:18;96087.88;;;17.53;84.04
48041;BME280;33815;48.386;11.738;2022-08-14T07:24:44;96088.25;;;17.70;81.00
48041;BME280;33815;48.386;11.738;2022-08-14T07:27:09;96065.88;;;17.92;78.13
48041;BME280;33815;48.386;11.738;2022-08-14T07:29:34;96071.91;;;18.06;78.81
48041;BME280;33815;48.386;11.738;2022-08-14T07:32:00;96080.56;;;18.20;78.72
48041;BME280;33815;48.386;11.738;2022-08-14T07:34:25;96064.81;;;18.45;75.62
48041;BME280;33815;48.386;11.738;2022-08-14T07:36:50;96064.38;;;18.80;74.95
48041;BME280;33815;48.386;11.738;2022-08-14T07:39:16;96060.00;;;18.99;74.81
48041;BME280;33815;48.386;11.738;2022-08-14T07:41:41;96056.03;;;19.09;74.86
48041;BME280;33815;48.386;11.738;2022-08-14T07:44:08;96036.31;;;19.30;73.87
48041;BME280;33815;48.386;11.738;2022-08-14T07:46:35;96035.81;;;19.40;72.50
48041;BME280;33815;48.386;11.738;2022-08-14T07:49:00;96030.53;;;19.40;71.68
48041;BME280;33815;48.386;11.738;2022-08-14T07:51:25;96029.31;;;19.79;69.44
48041;BME280;33815;48.386;11.738;2022-08-14T07:53:51;96029.88;;;20.30;68.25
48041;BME280;33815;48.386;11.738;2022-08-14T07:56:16;96016.41;;;20.20;68.42
48041;BME280;33815;48.386;11.738;2022-08-14T07:58:42;96020.03;;;20.49;67.76
48041;BME280;33815;48.386;11.738;2022-08-14T08:01:08;96016.78;;;21.01;63.88
48041;BME280;33815;48.386;11.738;2022-08-14T08:03:33;96015.06;;;20.83;64.29
48041;BME280;33815;48.386;11.738;2022-08-14T08:06:00;96008.38;;;21.04;63.22
48041;BME280;33815;48.386;11.738;2022-08-14T08:08:26;96012.72;;;21.99;62.30
48041;BME280;33815;48.386;11.738;2022-08-14T08:10:55;96001.53;;;22.71;59.35
48041;BME280;33815;48.386;11.738;2022-08-14T08:13:20;96007.78;;;23.55;55.53
48041;BME280;33815;48.386;11.738;2022-08-14T08:15:47;96008.94;;;23.65;55.71
48041;BME280;33815;48.386;11.738;2022-08-14T08:18:16;96003.69;;;23.48;54.08
48041;BME280;33815;48.386;11.738;2022-08-14T08:20:48;96000.38;;;23.01;55.20
48041;BME280;33815;48.386;11.738;2022-08-14T08:23:15;96007.69;;;23.28;52.76
48041;BME280;33815;48.386;11.738;2022-08-14T08:25:43;96013.28;;;22.92;56.45
48041;BME280;33815;48.386;11.738;2022-08-14T08:28:13;96004.25;;;22.76;56.64
48041;BME280;33815;48.386;11.738;2022-08-14T08:30:50;96024.94;;;22.74;56.74
48041;BME280;33815;48.386;11.738;2022-08-14T08:33:17;96015.06;;;22.87;58.23
48041;BME280;33815;48.386;11.738;2022-08-14T08:35:43;96012.72;;;23.07;55.30
48041;BME280;33815;48.386;11.738;2022-08-14T08:38:14;96008.00;;;23.32;55.45
48041;BME280;33815;48.386;11.738;2022-08-14T08:40:43;96006.69;;;23.51;53.74
48041;BME280;33815;48.386;11.738;2022-08-14T08:43:23;96002.44;;;23.94;54.39
48041;BME280;33815;48.386;11.738;2022-08-14T08:45:58;96006.25;;;24.31;53.26
48041;BME280;33815;48.386;11.738;2022-08-14T08:48:28;96008.09;;;24.58;50.98
48041;BME280;33815;48.386;11.738;2022-08-14T08:51:00;96000.56;;;24.82;49.81
48041;BME280;33815;48.386;11.738;2022-08-14T08:53:29;96001.09;;;25.22;49.66
48041;BME280;33815;48.386;11.738;2022-08-14T08:55:56;95990.47;;;25.27;46.76
48041;BME280;33815;48.386;11.738;2022-08-14T08:58:22;95973.50;;;24.95;47.22
48041;BME280;33815;48.386;11.738;2022-08-14T09:00:49;95988.97;;;25.04;49.21
48041;BME280;33815;48.386;11.738;2022-08-14T09:03:18;95983.69;;;25.57;48.09
48041;BME280;33815;48.386;11.738;2022-08-14T09:05:50;95978.16;;;25.74;47.04
48041;BME280;33815;48.386;11.738;2022-08-14T09:08:17;95975.81;;;25.93;45.83
48041;BME280;33815;48.386;11.738;2022-08-14T09:10:43;95975.81;;;25.93;46.43
48041;BME280;33815;48.386;11.738;2022-08-14T09:13:08;95963.50;;;25.81;46.41
48041;BME280;33815;48.386;11.738;2022-08-14T09:15:38;95968.28;;;25.79;46.41
48041;BME280;33815;48.386;11.738;2022-08-14T09:18:04;95962.44;;;25.88;45.42
48041;BME280;33815;48.386;11.738;2022-08-14T09:20:30;95969.19;;;26.16;44.14
48041;BME280;33815;48.386;11.738;2022-08-14T09:22:57;95967.09;;;26.08;44.62
48041;BME280;33815;48.386;11.738;2022-08-14T09:25:23;95957.72;;;26.10;43.88
48041;BME280;33815;48.386;11.738;2022-08-14T09:27:48;95950.78;;;26.09;43.74
48041;BME280;33815;48.386;11.738;2022-08-14T09:30:13;95939.06;;;26.36;41.12
48041;BME280;33815;48.386;11.738;2022-08-14T09:35:20;95931.84;;;26.73;43.28
48041;BME280;33815;48.386;11.738;2022-08-14T09:38:06;95935.06;;;26.70;41.93
48041;BME280;33815;48.386;11.738;2022-08-14T09:40:46;95936.94;;;26.74;40.98
48041;BME280;33815;48.386;11.738;2022-08-14T09:45:47;95938.44;;;27.22;42.16
48041;BME280;33815;48.386;11.738;2022-08-14T09:48:17;95925.34;;;27.20;39.22
48041;BME280;33815;48.386;11.738;2022-08-14T09:50:48;95931.44;;;27.36;40.14
48041;BME280;33815;48.386;11.738;2022-08-14T09:53:34;95913.13;;;27.64;38.85
48041;BME280;33815;48.386;11.738;2022-08-14T09:56:00;95920.16;;;27.94;37.95
48041;BME280;33815;48.386;11.738;2022-08-14T09:58:39;95910.00;;;27.46;38.17
48041;BME280;33815;48.386;11.738;2022-08-14T10:01:11;95930.59;;;28.06;41.32
48041;BME280;33815;48.386;11.738;2022-08-14T10:03:38;95918.59;;;27.93;37.08
48041;BME280;33815;48.386;11.738;2022-08-14T10:06:13;95918.88;;;27.92;38.36
48041;BME280;33815;48.386;11.738;2022-08-14T10:11:39;95904.44;;;28.27;36.29
48041;BME280;33815;48.386;11.738;2022-08-14T10:14:20;95905.19;;;28.33;38.17
48041;BME280;33815;48.386;11.738;2022-08-14T10:16:50;95906.38;;;28.16;37.53
48041;BME280;33815;48.386;11.738;2022-08-14T10:19:18;95901.38;;;28.39;36.77
48041;BME280;33815;48.386;11.738;2022-08-14T10:22:05;95900.16;;;28.90;36.71
48041;BME280;33815;48.386;11.738;2022-08-14T10:24:38;95900.19;;;29.09;37.00
48041;BME280;33815;48.386;11.738;2022-08-14T10:27:17;95890.63;;;29.27;34.93
48041;BME280;33815;48.386;11.738;2022-08-14T10:29:48;95867.44;;;29.12;34.50
48041;BME280;33815;48.386;11.738;2022-08-14T10:32:14;95864.63;;;29.47;33.79
48041;BME280;33815;48.386;11.738;2022-08-14T10:34:39;95861.25;;;29.36;33.33
48041;BME280;33815;48.386;11.738;2022-08-14T10:37:11;95871.97;;;29.60;35.08
48041;BME280;33815;48.386;11.738;2022-08-14T10:39:38;95851.56;;;29.78;34.90
48041;BME280;33815;48.386;11.738;2022-08-14T10:42:07;95850.97;;;29.62;32.21
48041;BME280;33815;48.386;11.738;2022-08-14T10:44:35;95854.41;;;29.49;34.66
48041;BME280;33815;48.386;11.738;2022-08-14T10:47:04;95863.41;;;29.77;34.72
48041;BME280;33815;48.386;11.738;2022-08-14T10:49:39;95855.72;;;29.89;33.82
48041;BME280;33815;48.386;11.738;2022-08-14T10:52:09;95858.81;;;29.78;34.27
48041;BME280;33815;48.386;11.738;2022-08-14T10:54:43;95852.84;;;29.81;34.80
48041;BME280;33815;48.386;11.738;2022-08-14T10:57:19;95841.53;;;30.03;33.79
48041;BME280;33815;48.386;11.738;2022-08-14T11:02:18;95825.63;;;30.06;32.58
48041;BME280;33815;48.386;11.738;2022-08-14T11:04:56;95831.94;;;30.49;32.30
48041;BME280;33815;48.386;11.738;2022-08-14T11:07:23;95830.88;;;30.64;33.29
48041;BME280;33815;48.386;11.738;2022-08-14T11:10:09;95836.94;;;30.69;32.31
48041;BME280;33815;48.386;11.738;2022-08-14T11:12:40;95822.97;;;30.53;31.90
48041;BME280;33815;48.386;11.738;2022-08-14T11:15:11;95830.03;;;30.49;32.31
48041;BME280;33815;48.386;11.738;2022-08-14T11:17:37;95828.34;;;30.53;32.36
48041;BME280;33815;48.386;11.738;2022-08-14T11:20:05;95818.50;;;30.49;31.78
48041;BME280;33815;48.386;11.738;2022-08-14T11:22:32;95802.66;;;30.61;31.73
48041;BME280;33815;48.386;11.738;2022-08-14T11:25:02;95801.78;;;30.93;32.90
48041;BME280;33815;48.386;11.738;2022-08-14T11:27:30;95790.16;;;31.35;31.98
48041;BME280;33815;48.386;11.738;2022-08-14T11:30:17;95803.38;;;30.95;33.21
48041;BME280;33815;48.386;11.738;2022-08-14T11:32:45;95792.59;;;31.08;30.85
48041;BME280;33815;48.386;11.738;2022-08-14T11:35:14;95782.75;;;31.04;30.65
48041;BME280;33815;48.386;11.738;2022-08-14T11:38:00;95790.75;;;31.32;31.55
48041;BME280;33815;48.386;11.738;2022-08-14T11:40:29;95784.09;;;31.29;30.68
48041;BME280;33815;48.386;11.738;2022-08-14T11:42:55;95787.53;;;31.43;31.48
48041;BME280;33815;48.386;11.738;2022-08-14T11:45:26;95786.97;;;31.33;32.24
48041;BME280;33815;48.386;11.738;2022-08-14T11:47:53;95788.84;;;31.32;31.53
48041;BME280;33815;48.386;11.738;2022-08-14T11:50:26;95777.78;;;31.34;32.12
48041;BME280;33815;48.386;11.738;2022-08-14T11:52:52;95762.78;;;31.78;30.97
48041;BME280;33815;48.386;11.738;2022-08-14T11:55:21;95759.75;;;31.71;30.18
48041;BME280;33815;48.386;11.738;2022-08-14T11:57:46;95766.28;;;31.78;30.89
48041;BME280;33815;48.386;11.738;2022-08-14T12:00:22;95754.91;;;31.82;30.61
48041;BME280;33815;48.386;11.738;2022-08-14T12:02:54;95741.69;;;31.57;31.12
48041;BME280;33815;48.386;11.738;2022-08-14T12:05:33;95739.84;;;31.81;31.59
48041;BME280;33815;48.386;11.738;2022-08-14T12:08:00;95740.13;;;32.02;30.51
48041;BME280;33815;48.386;11.738;2022-08-14T12:10:26;95741.09;;;32.37;29.65
48041;BME280;33815;48.386;11.738;2022-08-14T12:12:54;95739.63;;;32.22;29.77
48041;BME280;33815;48.386;11.738;2022-08-14T12:15:32;95739.13;;;32.60;31.75
48041;BME280;33815;48.386;11.738;2022-08-14T12:17:59;95727.47;;;32.83;29.09
48041;BME280;33815;48.386;11.738;2022-08-14T12:20:36;95721.13;;;32.38;29.01
48041;BME280;33815;48.386;11.738;2022-08-14T12:23:04;95720.63;;;32.76;30.08
48041;BME280;33815;48.386;11.738;2022-08-14T12:25:30;95711.88;;;32.79;29.55
48041;BME280;33815;48.386;11.738;2022-08-14T12:27:57;95722.91;;;33.09;30.09
48041;BME280;33815;48.386;11.738;2022-08-14T12:30:38;95706.69;;;33.01;28.45
48041;BME280;33815;48.386;11.738;2022-08-14T12:33:23;95708.25;;;32.84;27.53
48041;BME280;33815;48.386;11.738;2022-08-14T12:35:51;95704.16;;;33.04;27.48
48041;BME280;33815;48.386;11.738;2022-08-14T12:38:16;95706.25;;;33.34;28.18
48041;BME280;33815;48.386;11.738;2022-08-14T12:40:47;95694.66;;;33.33;26.75
48041;BME280;33815;48.386;11.738;2022-08-14T12:43:13;95698.00;;;32.55;26.98
48041;BME280;33815;48.386;11.738;2022-08-14T12:45:45;95687.78;;;32.83;27.39
48041;BME280;33815;48.386;11.738;2022-08-14T12:48:15;95701.31;;;33.09;27.42
48041;BME280;33815;48.386;11.738;2022-08-14T12:50:41;95697.16;;;33.03;27.85
48041;BME280;33815;48.386;11.738;2022-08-14T12:53:07;95691.16;;;33.33;27.35
48041;BME280;33815;48.386;11.738;2022-08-14T12:55:35;95682.75;;;33.43;25.70
48041;BME280;33815;48.386;11.738;2022-08-14T12:58:03;95685.75;;;33.15;27.34
48041;BME280;33815;48.386;11.738;2022-08-14T13:00:32;95676.38;;;33.39;26.27
48041;BME280;33815;48.386;11.738;2022-08-14T13:02:58;95670.75;;;33.79;26.50
48041;BME280;33815;48.386;11.738;2022-08-14T13:05:26;95656.72;;;33.94;25.44
48041;BME280;33815;48.386;11.738;2022-08-14T13:07:54;95668.44;;;34.07;25.90